createdAt,value
2019-01-24T00:01:05.544Z,99.90
2019-01-24T00:03:35.954Z,99.90
2019-01-24T00:06:06.410Z,99.90
2019-01-24T00:08:36.721Z,99.90
2019-01-24T00:11:07.035Z,99.90
2019-01-24T00:13:37.382Z,99.90
2019-01-24T00:16:07.822Z,99.90
2019-01-24T00:18:38.268Z,99.90
2019-01-24T00:21:08.695Z,99.90
2019-01-24T00:23:39.059Z,99.90
2019-01-24T00:26:09.384Z,99.90
2019-01-24T00:28:39.764Z,99.90
2019-01-24T00:31:10.193Z,99.90
2019-01-24T00:33:41.395Z,99.90
2019-01-24T00:36:11.813Z,99.90
2019-01-24T00:38:42.254Z,99.90
2019-01-24T00:41:12.607Z,99.90
2019-01-24T00:43:43.086Z,99.90
2019-01-24T00:46:13.435Z,99.90
2019-01-24T00:48:43.859Z,99.90
2019-01-24T00:51:14.161Z,99.90
2019-01-24T00:53:44.480Z,99.90
2019-01-24T00:56:14.877Z,99.90
2019-01-24T00:58:45.305Z,99.90
2019-01-24T01:01:15.623Z,99.90
2019-01-24T01:03:45.991Z,99.90
2019-01-24T01:06:17.605Z,99.90
2019-01-24T01:08:48.112Z,99.90
2019-01-24T01:11:19.160Z,99.90
2019-01-24T01:13:49.644Z,99.90
2019-01-24T01:16:21.752Z,99.90
2019-01-24T01:18:52.192Z,99.90
2019-01-24T01:21:22.594Z,99.90
2019-01-24T01:23:52.970Z,99.90
2019-01-24T01:26:23.500Z,99.90
2019-01-24T01:28:53.898Z,99.90
2019-01-24T01:31:24.236Z,99.90
2019-01-24T01:33:55.780Z,99.90
2019-01-24T01:36:26.299Z,99.90
2019-01-24T01:38:56.644Z,99.90
2019-01-24T01:41:27.124Z,99.90
2019-01-24T01:43:57.661Z,99.90
2019-01-24T01:46:28.034Z,99.90
2019-01-24T01:48:58.484Z,99.90
2019-01-24T01:51:28.865Z,99.90
2019-01-24T01:53:59.260Z,99.90
2019-01-24T01:56:29.523Z,99.90
2019-01-24T01:58:59.893Z,99.90
2019-01-24T02:01:30.269Z,99.90
2019-01-24T02:04:01.329Z,99.90
2019-01-24T02:06:31.718Z,99.90
2019-01-24T02:09:07.310Z,99.90
2019-01-24T02:11:37.681Z,99.90
2019-01-24T02:14:08.039Z,99.90
2019-01-24T02:16:38.481Z,99.90
2019-01-24T02:19:08.863Z,99.90
2019-01-24T02:21:39.194Z,99.90
2019-01-24T02:24:10.082Z,99.90
2019-01-24T02:26:40.447Z,99.90
2019-01-24T02:29:12.311Z,99.90
2019-01-24T02:31:42.671Z,99.90
2019-01-24T02:34:13.062Z,99.90
2019-01-24T02:36:43.491Z,99.90
2019-01-24T02:39:15.341Z,99.90
2019-01-24T02:41:45.742Z,99.90
2019-01-24T02:44:16.090Z,99.90
2019-01-24T02:46:46.505Z,99.90
2019-01-24T02:49:16.896Z,99.90
2019-01-24T02:51:47.306Z,99.90
2019-01-24T02:54:17.613Z,99.90
2019-01-24T02:56:48.062Z,99.90
2019-01-24T02:59:18.474Z,99.90
2019-01-24T03:01:51.805Z,99.90
2019-01-24T03:04:22.240Z,99.90
2019-01-24T03:06:52.556Z,99.90
2019-01-24T03:09:24.120Z,99.90
2019-01-24T03:11:54.529Z,99.90
2019-01-24T03:14:24.874Z,99.90
2019-01-24T03:16:55.319Z,99.90
2019-01-24T03:19:25.821Z,99.90
2019-01-24T03:21:56.297Z,99.90
2019-01-24T03:24:26.780Z,99.90
2019-01-24T03:26:57.159Z,99.90
2019-01-24T03:29:27.521Z,99.90
2019-01-24T03:31:57.891Z,99.90
2019-01-24T03:34:28.299Z,99.90
2019-01-24T03:37:01.417Z,99.90
2019-01-24T03:39:31.860Z,99.90
2019-01-24T03:42:02.246Z,99.90
2019-01-24T03:44:32.655Z,99.90
2019-01-24T03:47:03.094Z,99.90
2019-01-24T03:49:34.701Z,99.90
2019-01-24T03:52:05.261Z,99.90
2019-01-24T03:54:38.735Z,99.90
2019-01-24T03:57:09.070Z,99.90
2019-01-24T03:59:39.640Z,99.90
2019-01-24T04:02:10.067Z,99.90
2019-01-24T04:04:40.421Z,99.90
2019-01-24T04:07:10.745Z,99.90
2019-01-24T04:09:41.189Z,99.90
2019-01-24T04:12:14.209Z,99.90
2019-01-24T04:14:44.705Z,99.90
2019-01-24T04:17:15.155Z,99.90
2019-01-24T04:19:45.594Z,99.90
2019-01-24T04:22:16.118Z,99.90
2019-01-24T04:24:46.459Z,99.90
2019-01-24T04:27:16.786Z,99.90
2019-01-24T04:29:47.097Z,99.90
2019-01-24T04:32:17.476Z,99.90
2019-01-24T04:34:47.954Z,99.90
2019-01-24T04:37:18.419Z,99.90
2019-01-24T04:39:50.480Z,99.90
2019-01-24T04:42:20.887Z,99.90
2019-01-24T04:44:51.394Z,99.90
2019-01-24T04:47:24.361Z,99.90
2019-01-24T04:49:55.857Z,99.90
2019-01-24T04:52:26.178Z,99.90
2019-01-24T04:54:56.537Z,99.90
2019-01-24T04:57:26.933Z,99.90
2019-01-24T04:59:57.300Z,99.90
2019-01-24T05:02:27.648Z,99.90
2019-01-24T05:04:58.077Z,99.90
2019-01-24T05:07:28.600Z,99.90
2019-01-24T05:09:59.084Z,99.90
2019-01-24T05:12:29.421Z,99.90
2019-01-24T05:14:59.867Z,99.90
2019-01-24T05:17:30.213Z,99.90
2019-01-24T05:20:00.684Z,99.90
2019-01-24T05:22:32.105Z,99.90
2019-01-24T05:25:03.713Z,99.90
2019-01-24T05:27:35.079Z,99.90
2019-01-24T05:30:08.416Z,99.90
2019-01-24T05:32:38.742Z,99.90
2019-01-24T05:35:09.592Z,99.90
2019-01-24T05:37:39.878Z,99.90
2019-01-24T05:40:11.024Z,99.90
2019-01-24T05:42:41.539Z,99.90
2019-01-24T05:45:12.295Z,99.90
2019-01-24T05:47:42.792Z,99.90
2019-01-24T05:50:13.317Z,99.90
2019-01-24T05:52:43.696Z,99.90
2019-01-24T05:55:14.363Z,99.90
2019-01-24T05:57:44.802Z,99.90
2019-01-24T06:00:21.934Z,99.90
2019-01-24T06:02:53.320Z,99.90
2019-01-24T06:05:24.791Z,99.90
2019-01-24T06:07:55.108Z,99.90
2019-01-24T06:10:25.431Z,99.90
2019-01-24T06:12:58.257Z,99.90
2019-01-24T06:15:30.054Z,99.90
2019-01-24T06:18:00.492Z,99.90
2019-01-24T06:20:30.825Z,99.90
2019-01-24T06:23:01.264Z,99.90
2019-01-24T06:25:31.728Z,99.90
2019-01-24T06:28:02.292Z,99.90
2019-01-24T06:30:32.725Z,99.90
2019-01-24T06:33:06.993Z,99.90
2019-01-24T06:35:37.826Z,99.90
2019-01-24T06:38:08.301Z,99.90
2019-01-24T06:40:38.625Z,99.90
2019-01-24T06:43:08.957Z,99.90
2019-01-24T06:45:39.380Z,99.90
2019-01-24T06:48:09.703Z,99.90
2019-01-24T06:50:40.133Z,99.90
2019-01-24T06:53:10.475Z,99.90
2019-01-24T06:55:42.290Z,99.90
2019-01-24T06:58:15.446Z,99.90
2019-01-24T07:00:45.879Z,99.90
2019-01-24T07:03:16.370Z,99.90
2019-01-24T07:05:46.829Z,99.90
2019-01-24T07:08:17.148Z,99.90
2019-01-24T07:10:47.545Z,99.90
2019-01-24T07:13:17.992Z,99.90
2019-01-24T07:15:49.036Z,99.90
2019-01-24T07:18:19.516Z,99.90
2019-01-24T07:20:49.945Z,99.90
2019-01-24T07:23:22.421Z,99.90
2019-01-24T07:25:52.847Z,99.90
2019-01-24T07:28:23.636Z,99.90
2019-01-24T07:30:54.058Z,99.90
2019-01-24T07:33:24.515Z,99.90
2019-01-24T07:35:55.425Z,99.90
2019-01-24T07:38:25.754Z,99.90
2019-01-24T07:40:56.175Z,99.90
2019-01-24T07:43:26.684Z,99.90
2019-01-24T07:45:57.564Z,99.90
2019-01-24T07:48:27.983Z,99.90
2019-01-24T07:50:59.365Z,99.90
2019-01-24T07:53:29.794Z,99.90
2019-01-24T07:56:00.335Z,99.90
2019-01-24T07:58:30.765Z,99.90
2019-01-24T08:01:01.226Z,99.90
2019-01-24T08:03:32.168Z,99.90
2019-01-24T08:06:08.871Z,99.90
2019-01-24T08:08:35.093Z,99.90
2019-01-24T08:11:05.569Z,99.90
2019-01-24T08:13:35.994Z,99.90
2019-01-24T08:16:06.437Z,99.90
2019-01-24T08:18:36.789Z,99.90
2019-01-24T08:21:07.188Z,99.90
2019-01-24T08:23:40.395Z,99.90
2019-01-24T08:26:11.788Z,99.90
2019-01-24T08:28:42.515Z,99.90
2019-01-24T08:31:23.339Z,99.90
2019-01-24T08:33:53.808Z,99.90
2019-01-24T08:36:24.314Z,99.90
2019-01-24T08:38:54.779Z,99.90
2019-01-24T08:41:25.345Z,99.90
2019-01-24T08:44:00.424Z,99.90
2019-01-24T08:46:30.948Z,99.90
2019-01-24T08:49:01.528Z,99.90
2019-01-24T08:51:39.502Z,99.90
2019-01-24T08:54:10.021Z,99.90
2019-01-24T08:56:42.158Z,99.90
2019-01-24T08:59:12.994Z,99.90
2019-01-24T09:01:43.970Z,99.90
2019-01-24T09:04:18.796Z,99.90
2019-01-24T09:06:49.544Z,99.90
2019-01-24T09:09:20.146Z,99.90
2019-01-24T09:11:50.826Z,99.90
2019-01-24T09:14:21.620Z,99.90
2019-01-24T09:16:54.298Z,99.90
2019-01-24T09:19:29.508Z,99.90
2019-01-24T09:22:03.724Z,99.90
2019-01-24T09:24:40.557Z,99.90
2019-01-24T09:27:11.433Z,99.90
2019-01-24T09:29:42.003Z,99.90
2019-01-24T09:32:12.494Z,99.90
2019-01-24T09:34:42.928Z,99.90
2019-01-24T09:37:13.790Z,99.90
2019-01-24T09:39:46.547Z,99.90
2019-01-24T09:42:16.946Z,99.90
2019-01-24T09:44:47.618Z,99.90
2019-01-24T09:47:18.340Z,99.90
2019-01-24T09:49:48.655Z,99.90
2019-01-24T09:52:19.910Z,99.90
2019-01-24T09:54:50.292Z,99.90
2019-01-24T09:57:20.744Z,99.90
2019-01-24T09:59:51.172Z,99.90
2019-01-24T10:02:21.557Z,99.90
2019-01-24T10:04:51.900Z,99.90
2019-01-24T10:07:22.401Z,99.90
2019-01-24T10:09:52.823Z,99.90
2019-01-24T10:12:23.245Z,99.90
2019-01-24T10:14:53.631Z,99.90
2019-01-24T10:17:24.061Z,99.90
2019-01-24T10:19:54.529Z,99.90
2019-01-24T10:22:25.953Z,99.90
2019-01-24T10:24:59.211Z,99.90
2019-01-24T10:27:29.531Z,99.90
2019-01-24T10:29:59.929Z,99.90
2019-01-24T10:32:33.608Z,99.90
2019-01-24T10:35:04.142Z,99.90
2019-01-24T10:37:34.637Z,99.90
2019-01-24T10:40:06.852Z,99.90
2019-01-24T10:42:39.980Z,99.90
2019-01-24T10:45:12.639Z,99.90
2019-01-24T10:47:45.613Z,99.90
2019-01-24T10:50:17.030Z,99.90
2019-01-24T10:52:49.122Z,99.90
2019-01-24T10:55:21.454Z,99.90
2019-01-24T10:57:53.408Z,99.90
2019-01-24T11:00:26.678Z,99.90
2019-01-24T11:02:57.273Z,99.70
2019-01-24T11:05:27.793Z,99.90
2019-01-24T11:07:58.154Z,99.70
2019-01-24T11:10:28.641Z,99.80
2019-01-24T11:12:59.055Z,99.70
2019-01-24T11:15:32.624Z,99.70
2019-01-24T11:18:03.058Z,99.60
2019-01-24T11:20:33.507Z,99.80
2019-01-24T11:23:04.117Z,99.80
2019-01-24T11:25:34.453Z,99.60
2019-01-24T11:28:04.898Z,99.80
2019-01-24T11:30:35.570Z,99.80
2019-01-24T11:33:06.880Z,99.90
2019-01-24T11:35:37.781Z,99.80
2019-01-24T11:38:08.258Z,99.50
2019-01-24T11:40:38.790Z,99.70
2019-01-24T11:43:09.307Z,99.70
2019-01-24T11:45:43.401Z,99.70
2019-01-24T11:48:13.750Z,99.60
2019-01-24T11:50:44.231Z,99.80
2019-01-24T11:53:17.788Z,99.80
2019-01-24T11:55:48.359Z,99.70
2019-01-24T11:58:18.957Z,99.70
2019-01-24T12:00:54.788Z,99.50
2019-01-24T12:03:26.315Z,99.70
2019-01-24T12:05:59.714Z,99.60
2019-01-24T12:08:32.617Z,99.40
2019-01-24T12:11:03.208Z,99.60
2019-01-24T12:13:33.902Z,99.40
2019-01-24T12:16:04.289Z,99.50
2019-01-24T12:18:34.877Z,99.60
2019-01-24T12:21:07.041Z,99.60
2019-01-24T12:23:38.590Z,99.30
2019-01-24T12:26:08.990Z,99.30
2019-01-24T12:28:39.629Z,99.50
2019-01-24T12:31:12.974Z,99.20
2019-01-24T12:33:43.502Z,99.40
2019-01-24T12:36:15.640Z,99.40
2019-01-24T12:38:50.468Z,99.50
2019-01-24T12:41:21.075Z,99.30
2019-01-24T12:43:51.663Z,99.10
2019-01-24T12:46:22.572Z,99.30
2019-01-24T12:48:53.080Z,99.30
2019-01-24T12:51:26.218Z,99.30
2019-01-24T12:53:56.664Z,99.20
2019-01-24T12:56:27.070Z,99.00
2019-01-24T12:58:57.618Z,99.20
2019-01-24T13:01:28.356Z,99.20
2019-01-24T13:03:58.825Z,99.20
2019-01-24T13:06:29.682Z,99.00
2019-01-24T13:09:00.139Z,99.40
2019-01-24T13:11:36.534Z,99.20
2019-01-24T13:14:07.243Z,98.80
2019-01-24T13:16:37.738Z,98.90
2019-01-24T13:19:08.330Z,98.70
2019-01-24T13:21:39.194Z,98.90
2019-01-24T13:24:09.741Z,99.10
2019-01-24T13:26:40.381Z,98.90
2019-01-24T13:29:10.903Z,98.60
2019-01-24T13:31:41.472Z,98.90
2019-01-24T13:34:15.138Z,99.20
2019-01-24T13:36:45.619Z,98.70
2019-01-24T13:39:18.465Z,98.50
2019-01-24T13:41:48.842Z,98.40
2019-01-24T13:44:19.345Z,98.60
2019-01-24T13:46:49.706Z,98.60
2019-01-24T13:49:22.181Z,98.90
2019-01-24T13:51:52.610Z,98.40
2019-01-24T13:54:25.936Z,98.60
2019-01-24T13:57:03.707Z,98.40
2019-01-24T13:59:35.769Z,98.20
2019-01-24T14:02:07.785Z,98.30
2019-01-24T14:04:46.014Z,98.40
2019-01-24T14:07:16.576Z,98.40
2019-01-24T14:09:47.575Z,98.30
2019-01-24T14:12:19.140Z,98.20
2019-01-24T14:14:49.671Z,98.10
2019-01-24T14:17:20.097Z,98.40
2019-01-24T14:19:50.577Z,98.60
2019-01-24T14:22:20.938Z,98.20
2019-01-24T14:24:51.633Z,98.50
2019-01-24T14:27:22.065Z,98.60
2019-01-24T14:29:52.642Z,98.50
2019-01-24T14:32:26.056Z,98.70
2019-01-24T14:34:56.458Z,98.50
2019-01-24T14:37:26.992Z,98.50
2019-01-24T14:39:57.462Z,98.50
2019-01-24T14:42:28.904Z,98.60
2019-01-24T14:44:59.450Z,98.70
2019-01-24T14:47:31.456Z,98.60
2019-01-24T14:50:01.848Z,99.00
2019-01-24T14:52:32.364Z,98.80
2019-01-24T14:55:02.882Z,98.40
2019-01-24T14:57:34.487Z,99.00
2019-01-24T15:00:12.416Z,98.70
2019-01-24T15:02:43.093Z,99.10
2019-01-24T15:05:14.154Z,99.00
2019-01-24T15:07:47.370Z,99.10
2019-01-24T15:10:16.990Z,99.20
2019-01-24T15:12:47.892Z,99.20
2019-01-24T15:15:18.555Z,99.20
2019-01-24T15:17:49.036Z,99.10
2019-01-24T15:20:19.908Z,99.40
2019-01-24T15:22:50.396Z,99.30
2019-01-24T15:25:20.946Z,99.50
2019-01-24T15:27:52.905Z,99.60
2019-01-24T15:30:24.255Z,99.70
2019-01-24T15:32:55.123Z,99.70
2019-01-24T15:35:25.583Z,99.80
2019-01-24T15:37:56.123Z,99.90
2019-01-24T15:40:29.216Z,99.90
2019-01-24T15:42:59.681Z,99.80
2019-01-24T15:45:30.190Z,99.90
2019-01-24T15:48:00.926Z,99.90
2019-01-24T15:50:31.476Z,99.90
2019-01-24T15:53:01.788Z,99.70
2019-01-24T15:55:32.458Z,99.80
2019-01-24T15:58:05.906Z,99.90
2019-01-24T16:00:40.218Z,99.80
2019-01-24T16:03:10.966Z,99.90
2019-01-24T16:05:44.406Z,99.90
2019-01-24T16:08:14.940Z,99.90
2019-01-24T16:10:45.534Z,99.80
2019-01-24T16:13:17.546Z,99.90
2019-01-24T16:15:48.292Z,99.90
2019-01-24T16:18:18.876Z,99.90
2019-01-24T16:20:52.199Z,99.90
2019-01-24T16:23:25.483Z,99.90
2019-01-24T16:25:56.067Z,99.90
2019-01-24T16:28:26.657Z,99.90
2019-01-24T16:30:59.511Z,99.90
2019-01-24T16:33:35.439Z,99.90
2019-01-24T16:36:06.634Z,99.90
2019-01-24T16:38:40.337Z,99.90
2019-01-24T16:41:13.194Z,99.90
2019-01-24T16:43:43.887Z,99.90
2019-01-24T16:46:16.556Z,99.90
2019-01-24T16:48:46.998Z,99.90
2019-01-24T16:51:21.639Z,99.90
2019-01-24T16:53:54.709Z,99.90
2019-01-24T16:56:26.083Z,99.90
2019-01-24T16:58:56.828Z,99.90
2019-01-24T17:01:27.300Z,99.90
2019-01-24T17:03:57.903Z,99.90
2019-01-24T17:06:28.476Z,99.90
2019-01-24T17:09:01.598Z,99.90
2019-01-24T17:11:33.698Z,99.90
2019-01-24T17:14:07.948Z,99.90
2019-01-24T17:16:39.320Z,99.90
2019-01-24T17:19:09.796Z,99.90
2019-01-24T17:21:44.872Z,99.90
2019-01-24T17:24:15.565Z,99.90
2019-01-24T17:26:47.682Z,99.90
2019-01-24T17:29:18.284Z,99.90
2019-01-24T17:31:49.938Z,99.90
2019-01-24T17:34:25.770Z,99.90
2019-01-24T17:36:56.405Z,99.90
2019-01-24T17:39:26.735Z,99.90
2019-01-24T17:41:57.137Z,99.90
2019-01-24T17:44:28.618Z,99.90
2019-01-24T17:46:59.505Z,99.90
2019-01-24T17:49:32.323Z,99.90
2019-01-24T17:52:04.202Z,99.90
2019-01-24T17:54:34.876Z,99.90
2019-01-24T17:57:05.390Z,99.90
2019-01-24T17:59:36.343Z,99.90
2019-01-24T18:02:10.315Z,99.90
2019-01-24T18:04:40.817Z,99.90
2019-01-24T18:07:11.374Z,99.90
2019-01-24T18:09:42.017Z,99.90
2019-01-24T18:12:13.618Z,99.90
2019-01-24T18:14:45.660Z,99.90
2019-01-24T18:17:21.100Z,99.90
2019-01-24T18:19:54.521Z,99.90
2019-01-24T18:22:25.161Z,99.90
2019-01-24T18:24:57.126Z,99.90
2019-01-24T18:27:29.717Z,99.90
2019-01-24T18:30:00.795Z,99.90
2019-01-24T18:32:33.216Z,99.90
2019-01-24T18:35:04.515Z,99.90
2019-01-24T18:37:39.620Z,99.90
2019-01-24T18:40:12.511Z,99.90
2019-01-24T18:42:43.307Z,99.90
2019-01-24T18:45:17.150Z,99.90
2019-01-24T18:47:48.900Z,99.90
2019-01-24T18:50:20.781Z,99.90
2019-01-24T18:52:55.707Z,99.90
2019-01-24T18:55:26.913Z,99.90
2019-01-24T18:58:00.863Z,99.90
2019-01-24T19:00:36.929Z,99.90
2019-01-24T19:03:09.679Z,99.90
2019-01-24T19:05:41.336Z,99.90
2019-01-24T19:08:12.017Z,99.90
2019-01-24T19:10:42.569Z,99.90
2019-01-24T19:13:15.772Z,99.90
2019-01-24T19:15:50.700Z,99.90
2019-01-24T19:18:21.332Z,99.90
2019-01-24T19:20:53.725Z,99.90
2019-01-24T19:23:24.320Z,99.90
2019-01-24T19:25:56.916Z,99.90
2019-01-24T19:28:32.287Z,99.90
2019-01-24T19:31:04.238Z,99.90
2019-01-24T19:33:35.582Z,99.90
2019-01-24T19:36:06.127Z,99.90
2019-01-24T19:38:36.685Z,99.90
2019-01-24T19:41:07.174Z,99.90
2019-01-24T19:43:38.811Z,99.90
2019-01-24T19:46:14.263Z,99.90
2019-01-24T19:48:48.901Z,99.90
2019-01-24T19:51:19.318Z,99.90
2019-01-24T19:53:51.250Z,99.90
2019-01-24T19:56:22.323Z,99.90
2019-01-24T19:58:54.088Z,99.90
2019-01-24T20:01:25.461Z,99.90
2019-01-24T20:03:56.373Z,99.90
2019-01-24T20:06:26.781Z,99.90
2019-01-24T20:09:02.253Z,99.90
2019-01-24T20:11:34.389Z,99.90
2019-01-24T20:14:08.276Z,99.90
2019-01-24T20:16:39.100Z,99.90
2019-01-24T20:19:09.766Z,99.90
2019-01-24T20:21:40.601Z,99.90
2019-01-24T20:24:12.706Z,99.90
2019-01-24T20:26:46.209Z,99.90
2019-01-24T20:29:16.712Z,99.90
2019-01-24T20:31:47.295Z,99.90
2019-01-24T20:34:17.821Z,99.90
2019-01-24T20:36:48.427Z,99.90
2019-01-24T20:39:19.091Z,99.90
2019-01-24T20:41:51.272Z,99.90
2019-01-24T20:44:23.551Z,99.90
2019-01-24T20:46:54.186Z,99.90
2019-01-24T20:49:24.625Z,99.90
2019-01-24T20:51:55.150Z,99.90
2019-01-24T20:54:25.639Z,99.90
2019-01-24T20:56:56.698Z,99.90
2019-01-24T20:59:27.145Z,99.90
2019-01-24T21:01:57.851Z,99.90
2019-01-24T21:04:28.435Z,99.90
2019-01-24T21:07:00.723Z,99.90
2019-01-24T21:09:31.388Z,99.90
2019-01-24T21:12:02.030Z,99.90
2019-01-24T21:14:32.623Z,99.90
2019-01-24T21:17:04.759Z,99.90
2019-01-24T21:19:35.615Z,99.90
2019-01-24T21:22:06.553Z,99.90
2019-01-24T21:24:37.209Z,99.90
2019-01-24T21:27:07.728Z,99.90
2019-01-24T21:29:40.745Z,99.90
2019-01-24T21:32:11.356Z,99.90
2019-01-24T21:34:43.829Z,99.90
2019-01-24T21:37:16.591Z,99.90
2019-01-24T21:39:47.131Z,99.90
2019-01-24T21:42:17.528Z,99.90
2019-01-24T21:44:48.915Z,99.90
2019-01-24T21:47:19.408Z,99.90
2019-01-24T21:49:49.905Z,99.90
2019-01-24T21:52:20.330Z,99.90
2019-01-24T21:54:50.805Z,99.90
2019-01-24T21:57:21.220Z,99.90
2019-01-24T21:59:51.608Z,99.90
2019-01-24T22:02:22.078Z,99.90
2019-01-24T22:04:52.563Z,99.90
2019-01-24T22:07:24.431Z,99.90
2019-01-24T22:09:54.921Z,99.90
2019-01-24T22:12:25.417Z,99.90
2019-01-24T22:14:56.119Z,99.90
2019-01-24T22:17:27.569Z,99.90
2019-01-24T22:20:02.441Z,99.90
2019-01-24T22:22:34.104Z,99.90
2019-01-24T22:25:05.506Z,99.90
2019-01-24T22:27:36.139Z,99.90
2019-01-24T22:30:09.413Z,99.90
2019-01-24T22:32:39.875Z,99.90
2019-01-24T22:35:10.329Z,99.90
2019-01-24T22:37:41.023Z,99.90
2019-01-24T22:40:12.151Z,99.90
2019-01-24T22:42:43.158Z,99.90
2019-01-24T22:45:19.458Z,99.90
2019-01-24T22:47:49.936Z,99.90
2019-01-24T22:50:20.604Z,99.90
2019-01-24T22:52:52.907Z,99.90
2019-01-24T22:55:23.334Z,99.90
2019-01-24T22:57:53.837Z,99.90
2019-01-24T23:01:23.647Z,99.90
2019-01-24T23:04:02.293Z,99.90
2019-01-24T23:06:32.876Z,99.90
2019-01-24T23:09:08.563Z,99.90
2019-01-24T23:11:40.655Z,99.90
2019-01-24T23:14:12.670Z,99.90
2019-01-24T23:16:43.114Z,99.90
2019-01-24T23:19:13.762Z,99.90
2019-01-24T23:21:49.579Z,99.90
2019-01-24T23:24:20.174Z,99.90
2019-01-24T23:27:07.973Z,99.90
2019-01-24T23:29:40.674Z,99.90
2019-01-24T23:32:11.144Z,99.90
2019-01-24T23:34:42.220Z,99.90
2019-01-24T23:37:12.720Z,99.90
2019-01-24T23:39:51.744Z,99.90
2019-01-24T23:42:19.645Z,99.90
2019-01-24T23:44:51.644Z,99.90
2019-01-24T23:47:22.039Z,99.90
2019-01-24T23:49:52.455Z,99.90
2019-01-24T23:52:25.898Z,99.90
2019-01-24T23:54:56.381Z,99.90
2019-01-24T23:57:29.678Z,99.90
